Time;durP1;ratioP1;P1;durP2;ratioP2;P2;SDS_P1;SDS_P2;PMS_P1;PMS_P2;Temp;Humidity;BMP_temperature;BMP_pressure;BME280_temperature;BME280_humidity;BME280_pressure;Samples;Min_cycle;Max_cycle;Signal;HPM_P1;HPM_P2
2021/06/18 00:01:00;;;;;;;8.75;3.22;;;19.40;99.90;;;;;;5030830;28;20211;-81
2021/06/18 00:03:27;;;;;;;8.13;3.72;;;19.50;99.90;;;;;;5030496;28;20199;-82
2021/06/18 00:05:54;;;;;;;5.55;3.35;;;19.40;99.90;;;;;;5030800;28;20564;-80
2021/06/18 00:08:21;;;;;;;6.38;3.20;;;19.40;99.90;;;;;;5030008;28;20207;-80
2021/06/18 00:10:48;;;;;;;6.80;3.53;;;19.30;99.90;;;;;;5031154;28;20666;-85
2021/06/18 00:13:15;;;;;;;6.32;2.80;;;19.10;99.90;;;;;;5031115;28;20215;-79
2021/06/18 00:15:42;;;;;;;5.28;3.45;;;19.00;99.90;;;;;;5017614;28;20204;-89
2021/06/18 00:18:11;;;;;;;6.18;3.63;;;19.10;99.90;;;;;;5031568;28;20269;-80
2021/06/18 00:20:38;;;;;;;7.45;3.33;;;19.10;99.90;;;;;;5031220;28;20207;-85
2021/06/18 00:23:05;;;;;;;6.90;3.47;;;19.10;99.90;;;;;;5031497;28;20269;-86
2021/06/18 00:25:32;;;;;;;5.93;3.30;;;19.10;99.90;;;;;;5030814;28;20270;-83
2021/06/18 00:27:59;;;;;;;6.13;4.03;;;19.00;99.90;;;;;;5030931;28;20269;-79
2021/06/18 00:30:27;;;;;;;7.60;4.20;;;19.00;99.90;;;;;;5023574;28;20246;-86
2021/06/18 00:32:53;;;;;;;12.52;4.72;;;18.90;99.90;;;;;;5030803;28;20208;-82
2021/06/18 00:35:22;;;;;;;6.80;4.75;;;18.80;99.90;;;;;;5030155;28;20225;-81
2021/06/18 00:37:49;;;;;;;12.02;5.22;;;18.80;99.90;;;;;;5031017;28;20269;-82
2021/06/18 00:40:17;;;;;;;5.85;5.32;;;18.90;99.90;;;;;;5029963;28;20261;-79
2021/06/18 00:42:44;;;;;;;10.00;4.88;;;19.10;99.90;;;;;;5032946;28;20610;-80
2021/06/18 00:45:12;;;;;;;16.27;4.78;;;19.10;99.90;;;;;;5034796;28;20207;-76
2021/06/18 00:47:47;;;;;;;15.25;5.20;;;19.10;99.90;;;;;;5034448;28;20286;-82
2021/06/18 00:50:14;;;;;;;9.48;4.88;;;19.20;99.90;;;;;;5033931;28;20697;-79
2021/06/18 00:52:42;;;;;;;15.63;5.00;;;19.20;99.90;;;;;;5034772;28;20217;-77
2021/06/18 00:55:11;;;;;;;12.50;4.95;;;19.20;99.90;;;;;;5034222;28;20201;-76
2021/06/18 00:57:38;;;;;;;6.82;4.13;;;19.30;99.90;;;;;;5034331;28;20211;-81
2021/06/18 01:00:07;;;;;;;6.95;4.47;;;19.30;99.90;;;;;;5034330;28;20207;-80
2021/06/18 01:02:34;;;;;;;8.27;4.97;;;19.10;99.90;;;;;;5033700;28;20261;-81
2021/06/18 01:05:01;;;;;;;8.02;4.95;;;18.90;99.90;;;;;;5034207;28;20526;-80
2021/06/18 01:07:32;;;;;;;7.18;5.03;;;18.80;99.90;;;;;;5033944;28;20693;-81
2021/06/18 01:10:14;;;;;;;15.20;5.85;;;18.80;99.90;;;;;;5034098;28;20251;-84
2021/06/18 01:12:56;;;;;;;9.05;4.70;;;18.70;99.90;;;;;;5034685;28;20239;-78
2021/06/18 01:15:35;;;;;;;10.70;5.05;;;18.80;99.90;;;;;;5033966;28;20203;-81
2021/06/18 01:18:06;;;;;;;12.55;4.43;;;18.60;99.90;;;;;;5033763;28;20267;-80
2021/06/18 01:21:03;;;;;;;7.97;4.10;;;18.70;99.90;;;;;;5033224;28;20653;-81
2021/06/18 01:23:58;;;;;;;8.75;4.72;;;18.80;99.90;;;;;;5033378;28;20211;-85
2021/06/18 01:26:56;;;;;;;9.63;5.28;;;18.90;99.90;;;;;;5034092;28;20207;-82
2021/06/18 01:29:26;;;;;;;17.83;6.50;;;19.10;99.90;;;;;;5019517;28;20235;-80
2021/06/18 01:31:53;;;;;;;8.07;4.53;;;18.90;99.90;;;;;;5033592;28;20278;-80
2021/06/18 01:34:27;;;;;;;8.45;4.53;;;18.80;99.90;;;;;;5033444;28;20269;-81
2021/06/18 01:36:59;;;;;;;6.95;3.92;;;18.70;99.90;;;;;;5033505;28;20203;-81
2021/06/18 01:39:26;;;;;;;16.50;5.10;;;18.80;99.90;;;;;;5032985;28;20215;-82
2021/06/18 01:41:55;;;;;;;7.63;3.90;;;18.80;99.90;;;;;;5033667;28;20215;-82
2021/06/18 01:44:24;;;;;;;8.60;4.43;;;18.70;99.90;;;;;;5033443;28;20211;-82
2021/06/18 01:46:54;;;;;;;10.38;4.32;;;18.80;99.90;;;;;;5033694;28;20257;-82
2021/06/18 01:49:22;;;;;;;9.23;4.03;;;18.90;99.90;;;;;;5032899;28;20277;-82
2021/06/18 01:51:50;;;;;;;9.68;4.10;;;19.00;99.90;;;;;;5032942;28;20211;-78
2021/06/18 01:54:17;;;;;;;8.45;4.68;;;19.00;99.90;;;;;;5032429;28;20740;-78
2021/06/18 01:56:47;;;;;;;11.38;3.95;;;18.80;99.90;;;;;;5032924;28;20258;-81
2021/06/18 01:59:15;;;;;;;7.97;4.72;;;18.80;99.90;;;;;;5032511;28;20245;-81
2021/06/18 02:01:47;;;;;;;11.60;4.65;;;18.80;99.90;;;;;;5032954;28;20208;-79
2021/06/18 02:04:16;;;;;;;7.82;5.85;;;18.80;99.90;;;;;;5032287;28;20285;-78
2021/06/18 02:06:46;;;;;;;7.75;4.68;;;18.70;99.90;;;;;;5033020;28;20281;-78
2021/06/18 02:09:16;;;;;;;7.53;4.80;;;18.50;99.90;;;;;;5031949;28;20224;-78
2021/06/18 02:11:44;;;;;;;10.75;4.68;;;18.30;99.90;;;;;;5032709;28;20208;-77
2021/06/18 02:14:18;;;;;;;9.07;4.50;;;18.20;99.90;;;;;;5032956;28;20254;-78
2021/06/18 02:16:51;;;;;;;9.15;4.97;;;18.30;99.90;;;;;;5019560;28;20210;-78
2021/06/18 02:19:20;;;;;;;15.00;7.15;;;18.50;99.90;;;;;;5032122;28;20682;-78
2021/06/18 02:21:48;;;;;;;12.93;6.78;;;18.50;99.90;;;;;;5018765;28;20211;-78
2021/06/18 02:24:16;;;;;;;9.73;5.53;;;18.20;99.90;;;;;;5032118;28;20215;-79
2021/06/18 02:26:44;;;;;;;9.85;6.38;;;18.10;99.90;;;;;;5032435;28;20207;-78
2021/06/18 02:29:11;;;;;;;7.60;5.65;;;18.20;99.90;;;;;;5032943;28;20203;-79
2021/06/18 02:31:40;;;;;;;10.45;6.90;;;18.20;99.90;;;;;;5032651;28;20257;-79
2021/06/18 02:34:09;;;;;;;10.45;6.05;;;18.10;99.90;;;;;;5032758;28;20207;-79
2021/06/18 02:36:37;;;;;;;8.38;6.07;;;18.20;99.90;;;;;;5030438;28;20273;-79
2021/06/18 02:39:06;;;;;;;11.90;5.65;;;18.10;99.90;;;;;;5020857;28;20266;-79
2021/06/18 02:41:33;;;;;;;9.93;6.70;;;18.20;99.90;;;;;;5032012;28;20289;-78
2021/06/18 02:44:02;;;;;;;14.00;6.68;;;18.30;99.90;;;;;;5032109;28;20640;-81
2021/06/18 02:46:35;;;;;;;10.95;6.00;;;18.20;99.90;;;;;;5031662;28;20330;-81
2021/06/18 02:49:05;;;;;;;10.65;6.97;;;18.10;99.90;;;;;;5031970;28;20238;-80
2021/06/18 02:51:41;;;;;;;9.70;6.97;;;18.20;99.90;;;;;;5031627;28;20214;-80
2021/06/18 02:54:17;;;;;;;9.93;5.97;;;18.20;99.90;;;;;;5032265;28;20214;-81
2021/06/18 02:56:47;;;;;;;6.53;5.22;;;18.10;99.90;;;;;;5032103;28;20207;-80
2021/06/18 02:59:23;;;;;;;7.95;4.90;;;18.10;99.90;;;;;;5031420;28;20265;-79
2021/06/18 03:01:52;;;;;;;9.32;4.65;;;18.00;99.90;;;;;;5031957;28;20210;-81
2021/06/18 03:04:22;;;;;;;6.35;4.78;;;18.00;99.90;;;;;;5030468;28;20666;-82
2021/06/18 03:06:54;;;;;;;9.60;4.13;;;18.20;99.90;;;;;;5031661;28;20218;-80
2021/06/18 03:09:27;;;;;;;5.32;3.88;;;18.20;99.90;;;;;;5031053;28;20261;-79
2021/06/18 03:11:56;;;;;;;5.25;4.13;;;18.20;99.90;;;;;;5031547;28;20203;-80
2021/06/18 03:14:28;;;;;;;8.88;4.75;;;18.20;99.90;;;;;;5031322;28;20203;-79
2021/06/18 03:16:59;;;;;;;10.65;4.70;;;18.30;99.90;;;;;;5031499;28;20291;-77
2021/06/18 03:19:30;;;;;;;8.15;4.40;;;18.50;99.90;;;;;;5031175;28;20204;-77
2021/06/18 03:22:01;;;;;;;5.95;3.83;;;18.50;99.90;;;;;;5031463;28;20231;-78
2021/06/18 03:24:31;;;;;;;10.23;4.30;;;18.40;99.90;;;;;;5030769;28;20732;-78
2021/06/18 03:26:59;;;;;;;7.40;4.38;;;18.40;99.90;;;;;;5031844;28;20211;-79
2021/06/18 03:29:28;;;;;;;6.93;4.15;;;18.40;99.90;;;;;;5030941;28;20218;-79
2021/06/18 03:31:56;;;;;;;6.53;4.13;;;18.30;99.90;;;;;;5029485;28;20215;-80
2021/06/18 03:34:23;;;;;;;5.50;4.00;;;18.40;99.90;;;;;;5023146;28;20208;-78
2021/06/18 03:36:52;;;;;;;5.05;3.83;;;18.40;99.90;;;;;;5028839;28;20208;-79
2021/06/18 03:39:21;;;;;;;10.90;4.07;;;18.40;99.90;;;;;;5026407;28;20216;-80
2021/06/18 03:41:48;;;;;;;5.32;4.47;;;18.20;99.90;;;;;;5031173;28;20227;-80
2021/06/18 03:44:16;;;;;;;7.53;4.00;;;18.10;99.90;;;;;;5030743;28;20211;-79
2021/06/18 03:46:45;;;;;;;7.32;4.40;;;18.10;99.90;;;;;;5031132;28;20621;-78
2021/06/18 03:49:13;;;;;;;10.52;4.85;;;18.10;99.90;;;;;;5030121;28;20212;-81
2021/06/18 03:51:40;;;;;;;8.20;4.50;;;18.10;99.90;;;;;;5025194;28;20589;-81
2021/06/18 03:54:08;;;;;;;9.63;5.18;;;18.10;99.90;;;;;;5031083;28;20203;-81
2021/06/18 03:56:47;;;;;;;12.02;5.10;;;18.00;99.90;;;;;;5030454;28;20572;-81
2021/06/18 03:59:15;;;;;;;7.07;4.70;;;18.00;99.90;;;;;;5030312;28;20225;-81
2021/06/18 04:01:44;;;;;;;7.57;5.45;;;18.00;99.90;;;;;;5030839;28;20214;-80
2021/06/18 04:04:12;;;;;;;8.82;5.15;;;17.90;99.90;;;;;;5030570;28;20211;-80
2021/06/18 04:06:40;;;;;;;11.18;6.43;;;17.80;99.90;;;;;;5031183;28;20698;-79
2021/06/18 04:09:07;;;;;;;10.65;5.63;;;18.00;99.90;;;;;;5030963;28;20239;-80
2021/06/18 04:11:36;;;;;;;14.50;5.97;;;18.00;99.90;;;;;;5030356;28;20261;-79
2021/06/18 04:14:04;;;;;;;9.90;5.72;;;17.90;99.90;;;;;;5030788;28;20223;-78
2021/06/18 04:16:32;;;;;;;10.93;6.25;;;17.90;99.90;;;;;;5030176;28;20646;-80
2021/06/18 04:19:00;;;;;;;9.10;6.20;;;17.80;99.90;;;;;;5030619;28;20214;-78
2021/06/18 04:21:28;;;;;;;9.73;6.47;;;17.80;99.90;;;;;;5030181;28;20269;-79
2021/06/18 04:23:55;;;;;;;9.52;6.82;;;17.70;99.90;;;;;;5030668;28;20563;-78
2021/06/18 04:26:23;;;;;;;14.20;7.18;;;17.50;99.90;;;;;;5028886;28;20211;-77
2021/06/18 04:28:53;;;;;;;11.13;6.88;;;17.50;99.90;;;;;;5018739;28;20219;-78
2021/06/18 04:31:20;;;;;;;8.82;7.32;;;17.50;99.90;;;;;;5030102;28;20377;-77
2021/06/18 04:33:47;;;;;;;11.60;7.10;;;17.30;99.90;;;;;;5030184;28;20203;-79
2021/06/18 04:36:14;;;;;;;18.50;7.60;;;17.30;99.90;;;;;;5029633;28;20211;-78
2021/06/18 04:38:42;;;;;;;10.98;8.02;;;17.40;99.90;;;;;;5029865;28;20258;-79
2021/06/18 04:41:09;;;;;;;11.25;7.97;;;17.50;99.90;;;;;;5030337;28;20211;-79
2021/06/18 04:43:36;;;;;;;8.82;7.07;;;17.50;99.90;;;;;;5030603;28;20207;-78
2021/06/18 04:46:04;;;;;;;11.15;7.43;;;17.40;99.90;;;;;;5030362;28;20204;-78
2021/06/18 04:48:31;;;;;;;12.30;6.78;;;17.40;99.90;;;;;;5029801;28;20215;-79
2021/06/18 04:50:59;;;;;;;7.80;5.95;;;17.60;99.90;;;;;;5030294;28;20223;-78
2021/06/18 04:53:26;;;;;;;7.55;6.80;;;17.60;99.90;;;;;;5029985;28;20632;-79
2021/06/18 04:55:53;;;;;;;9.93;5.88;;;17.70;99.90;;;;;;5029688;28;20674;-78
2021/06/18 04:58:20;;;;;;;12.73;7.50;;;17.80;99.90;;;;;;5029980;28;20203;-78
2021/06/18 05:00:49;;;;;;;14.27;7.32;;;17.80;99.90;;;;;;5029650;28;20208;-77
2021/06/18 05:03:18;;;;;;;10.50;7.57;;;17.90;99.90;;;;;;5030012;28;20605;-77
2021/06/18 05:05:45;;;;;;;10.52;6.35;;;18.00;99.90;;;;;;5030108;28;20207;-77
2021/06/18 05:08:12;;;;;;;8.90;5.88;;;18.00;99.90;;;;;;5029874;28;20208;-78
2021/06/18 05:10:39;;;;;;;9.45;6.80;;;18.00;99.90;;;;;;5030545;28;20227;-78
2021/06/18 05:13:06;;;;;;;8.45;5.40;;;18.10;99.90;;;;;;5029885;28;20249;-78
2021/06/18 05:15:33;;;;;;;14.15;6.88;;;18.10;99.90;;;;;;5029644;28;20204;-78
2021/06/18 05:18:01;;;;;;;9.77;6.38;;;18.20;99.90;;;;;;5029838;28;20278;-78
2021/06/18 05:20:30;;;;;;;10.07;6.90;;;18.20;99.90;;;;;;5028852;28;20686;-78
2021/06/18 05:22:57;;;;;;;19.25;8.18;;;18.20;99.90;;;;;;5027764;28;20204;-78
2021/06/18 05:25:24;;;;;;;15.82;7.43;;;18.20;99.90;;;;;;5028980;28;20208;-77
2021/06/18 05:27:51;;;;;;;10.95;7.63;;;18.30;99.90;;;;;;5018187;28;20597;-77
2021/06/18 05:30:19;;;;;;;9.00;7.95;;;18.30;99.90;;;;;;5032809;28;20234;-78
2021/06/18 05:32:47;;;;;;;9.90;5.90;;;18.30;99.90;;;;;;5033588;28;20216;-77
2021/06/18 05:35:14;;;;;;;14.18;7.00;;;18.40;99.90;;;;;;5033018;28;20257;-78
2021/06/18 05:37:43;;;;;;;11.40;6.78;;;18.40;99.90;;;;;;5033601;28;20211;-77
2021/06/18 05:40:11;;;;;;;13.35;7.25;;;18.40;99.90;;;;;;5033185;28;20207;-79
2021/06/18 05:42:38;;;;;;;13.32;7.70;;;18.50;99.90;;;;;;5033620;28;20196;-81
2021/06/18 05:45:06;;;;;;;10.50;5.55;;;18.50;99.90;;;;;;5033507;28;20211;-81
2021/06/18 05:47:33;;;;;;;12.57;8.57;;;18.50;99.90;;;;;;5032389;28;20694;-80
2021/06/18 05:50:00;;;;;;;18.38;8.85;;;18.60;99.90;;;;;;5032881;28;20634;-79
2021/06/18 05:52:27;;;;;;;12.48;8.18;;;18.70;99.90;;;;;;5032456;28;20216;-79
2021/06/18 05:54:55;;;;;;;9.95;8.07;;;18.80;99.90;;;;;;5033525;28;20212;-79
2021/06/18 05:57:22;;;;;;;9.02;6.28;;;18.90;99.90;;;;;;5032583;28;20207;-79
2021/06/18 05:59:49;;;;;;;15.85;14.77;;;19.00;99.90;;;;;;5033021;28;20265;-79
2021/06/18 06:02:18;;;;;;;8.93;5.13;;;19.20;99.90;;;;;;5032580;28;20223;-80
2021/06/18 06:04:45;;;;;;;6.38;4.68;;;19.30;99.90;;;;;;5032979;28;20214;-80
2021/06/18 06:07:12;;;;;;;7.93;4.90;;;19.40;99.90;;;;;;5032550;28;20208;-79
2021/06/18 06:09:39;;;;;;;9.70;5.35;;;19.50;99.90;;;;;;5032832;28;20206;-79
2021/06/18 06:12:12;;;;;;;7.20;6.00;;;19.50;99.90;;;;;;5033216;28;20280;-79
2021/06/18 06:14:39;;;;;;;10.82;9.77;;;19.40;99.90;;;;;;5032920;28;20261;-80
2021/06/18 06:17:06;;;;;;;8.73;5.40;;;19.30;99.90;;;;;;5032737;28;20671;-78
2021/06/18 06:19:33;;;;;;;8.32;5.80;;;19.30;99.90;;;;;;5031931;28;20287;-77
2021/06/18 06:22:00;;;;;;;8.07;4.68;;;19.40;99.90;;;;;;5031701;28;20257;-79
2021/06/18 06:24:27;;;;;;;9.52;5.15;;;19.40;99.90;;;;;;5017994;28;20207;-75
2021/06/18 06:26:54;;;;;;;12.10;4.20;;;19.50;99.90;;;;;;5026971;28;20874;-73
2021/06/18 06:29:23;;;;;;;9.18;6.38;;;19.70;99.90;;;;;;5016024;28;20265;-73
2021/06/18 06:31:50;;;;;;;11.95;7.10;;;19.60;99.90;;;;;;5027391;28;20231;-73
2021/06/18 06:34:17;;;;;;;10.18;7.25;;;19.70;99.90;;;;;;5027121;28;21094;-72
2021/06/18 06:36:44;;;;;;;5.38;4.00;;;19.80;99.90;;;;;;5033062;28;20200;-73
2021/06/18 06:39:11;;;;;;;7.03;6.13;;;19.80;99.90;;;;;;5029631;28;20212;-73
2021/06/18 06:41:38;;;;;;;5.25;4.40;;;20.10;99.90;;;;;;5031568;28;20216;-73
2021/06/18 06:44:06;;;;;;;7.82;3.90;;;20.20;99.90;;;;;;5030960;28;20207;-73
2021/06/18 06:46:34;;;;;;;10.50;5.30;;;20.40;99.90;;;;;;5028573;28;20204;-73
2021/06/18 06:49:01;;;;;;;8.52;4.00;;;20.60;99.90;;;;;;5030689;28;20216;-72
2021/06/18 06:51:28;;;;;;;5.68;4.80;;;20.60;99.90;;;;;;5030525;28;20231;-73
2021/06/18 06:53:55;;;;;;;7.20;4.07;;;20.60;99.90;;;;;;5031491;28;20598;-72
2021/06/18 06:56:22;;;;;;;5.43;3.38;;;20.60;99.90;;;;;;5030784;28;20269;-72
2021/06/18 06:58:51;;;;;;;10.02;3.75;;;20.60;99.90;;;;;;5031366;28;20211;-72
2021/06/18 07:01:18;;;;;;;6.10;3.63;;;20.60;99.90;;;;;;5029821;28;20741;-72
2021/06/18 07:03:46;;;;;;;4.38;3.33;;;20.70;99.90;;;;;;5029659;28;20560;-72
2021/06/18 07:06:13;;;;;;;12.15;4.75;;;20.80;99.90;;;;;;5028158;28;20207;-71
2021/06/18 07:08:40;;;;;;;7.32;4.75;;;21.00;99.90;;;;;;5030944;28;20212;-70
2021/06/18 07:11:07;;;;;;;8.80;4.75;;;20.90;99.90;;;;;;5030854;28;20227;-71
2021/06/18 07:13:34;;;;;;;7.50;3.70;;;20.90;99.90;;;;;;5029866;28;20277;-70
2021/06/18 07:16:02;;;;;;;8.13;3.80;;;21.20;99.90;;;;;;5030799;28;20211;-71
2021/06/18 07:18:29;;;;;;;10.48;5.20;;;21.30;99.90;;;;;;5027485;28;20292;-71
2021/06/18 07:20:57;;;;;;;23.48;3.95;;;21.40;99.90;;;;;;5025142;28;20203;-71
2021/06/18 07:23:24;;;;;;;8.10;4.60;;;21.40;99.90;;;;;;5030030;28;20203;-72
2021/06/18 07:25:51;;;;;;;9.27;5.13;;;21.40;99.90;;;;;;5030572;28;20199;-71
2021/06/18 07:28:18;;;;;;;13.18;7.03;;;21.50;99.90;;;;;;5030224;28;20640;-72
2021/06/18 07:30:45;;;;;;;7.97;5.32;;;22.00;99.90;;;;;;5030263;28;20550;-76
2021/06/18 07:33:12;;;;;;;40.92;6.63;;;22.40;99.90;;;;;;5029449;28;20215;-75
2021/06/18 07:35:39;;;;;;;6.88;3.97;;;22.50;99.90;;;;;;5029582;28;20665;-75
2021/06/18 07:38:07;;;;;;;11.48;4.93;;;23.00;99.90;;;;;;5030338;28;20203;-76
2021/06/18 07:40:35;;;;;;;6.93;3.50;;;22.70;99.90;;;;;;5029994;28;20220;-77
2021/06/18 07:43:02;;;;;;;5.57;3.53;;;23.40;99.90;;;;;;5030035;28;20208;-74
2021/06/18 07:45:29;;;;;;;10.18;4.13;;;24.90;99.90;;;;;;5030219;28;20265;-76
2021/06/18 07:47:57;;;;;;;6.95;4.50;;;24.10;99.90;;;;;;5028386;28;20249;-75
2021/06/18 07:50:25;;;;;;;7.38;5.10;;;23.70;99.90;;;;;;5022433;28;20211;-74
2021/06/18 07:52:52;;;;;;;10.13;9.20;;;23.90;99.90;;;;;;5022117;28;20239;-74
2021/06/18 07:55:23;;;;;;;7.43;4.95;;;24.00;99.90;;;;;;5025999;28;20207;-73
2021/06/18 07:57:50;;;;;;;4.85;2.70;;;26.00;99.90;;;;;;5027879;28;20206;-75
2021/06/18 08:00:18;;;;;;;7.72;3.83;;;26.40;99.90;;;;;;5028648;28;20713;-75
2021/06/18 08:02:46;;;;;;;9.43;3.60;;;25.70;99.90;;;;;;5026052;28;20334;-75
2021/06/18 08:05:14;;;;;;;9.10;3.90;;;25.30;99.90;;;;;;5023953;28;20263;-75
2021/06/18 08:07:42;;;;;;;19.60;5.30;;;24.60;99.90;;;;;;5024279;28;20729;-72
2021/06/18 08:10:12;;;;;;;5.43;3.67;;;24.80;99.90;;;;;;5025747;28;20326;-72
2021/06/18 08:12:41;;;;;;;7.65;5.22;;;25.10;99.90;;;;;;5026410;28;20239;-72
2021/06/18 08:15:09;;;;;;;4.03;3.63;;;24.90;99.90;;;;;;5024028;28;20203;-74
2021/06/18 08:17:36;;;;;;;8.43;4.35;;;24.70;99.90;;;;;;5030437;28;20214;-72
2021/06/18 08:20:06;;;;;;;12.93;3.45;;;24.40;99.90;;;;;;5029176;28;20260;-75
2021/06/18 08:22:33;;;;;;;6.70;3.58;;;23.00;99.90;;;;;;5030310;28;20222;-72
2021/06/18 08:25:02;;;;;;;12.70;3.05;;;23.00;99.90;;;;;;5029565;28;20269;-73
2021/06/18 08:27:29;;;;;;;5.93;2.70;;;23.80;99.90;;;;;;5020454;28;20218;-74
2021/06/18 08:29:57;;;;;;;5.82;2.33;;;24.40;99.90;;;;;;5026043;28;20203;-73
2021/06/18 08:32:24;;;;;;;4.88;3.05;;;24.40;99.90;;;;;;5027253;28;20281;-73
2021/06/18 08:34:51;;;;;;;4.05;2.08;;;24.10;99.90;;;;;;5026201;28;20265;-73
2021/06/18 08:37:18;;;;;;;14.95;13.68;;;24.00;99.90;;;;;;5024633;28;20262;-73
2021/06/18 08:39:45;;;;;;;6.68;3.72;;;23.90;99.90;;;;;;5029153;28;20212;-73
2021/06/18 08:42:12;;;;;;;6.90;3.25;;;24.40;99.90;;;;;;5029053;28;20282;-74
2021/06/18 08:44:39;;;;;;;12.18;5.13;;;24.40;99.90;;;;;;5029935;28;20240;-73
2021/06/18 08:47:08;;;;;;;8.82;3.13;;;24.50;99.90;;;;;;5023992;28;20211;-73
2021/06/18 08:49:35;;;;;;;5.38;4.13;;;24.90;99.90;;;;;;5024367;28;20207;-73
2021/06/18 08:52:03;;;;;;;4.22;2.90;;;24.80;99.90;;;;;;5029025;28;20257;-72
2021/06/18 08:54:42;;;;;;;6.28;3.70;;;24.90;99.90;;;;;;5028128;28;20265;-72
2021/06/18 08:57:10;;;;;;;3.53;2.53;;;25.30;99.90;;;;;;5028745;28;20262;-73
2021/06/18 08:59:37;;;;;;;10.68;3.80;;;26.00;99.90;;;;;;5029919;28;20649;-72
2021/06/18 09:02:05;;;;;;;5.07;3.75;;;26.70;99.90;;;;;;5030422;28;20208;-73
2021/06/18 09:04:33;;;;;;;6.15;3.78;;;26.80;99.90;;;;;;5033365;28;20753;-72
2021/06/18 09:07:01;;;;;;;22.52;4.70;;;27.00;99.90;;;;;;5034077;28;20258;-73
2021/06/18 09:09:30;;;;;;;6.20;3.83;;;27.30;99.90;;;;;;5033050;28;20211;-71
2021/06/18 09:12:00;;;;;;;11.70;4.35;;;27.60;99.90;;;;;;5032811;28;20281;-71
2021/06/18 09:14:30;;;;;;;6.00;4.43;;;28.00;99.90;;;;;;5033314;28;20215;-72
2021/06/18 09:17:11;;;;;;;7.60;3.90;;;26.90;99.90;;;;;;5028000;28;20254;-72
2021/06/18 09:19:43;;;;;;;5.93;3.70;;;25.60;99.90;;;;;;5033724;28;20204;-72
2021/06/18 09:22:12;;;;;;;6.93;4.15;;;25.30;99.90;;;;;;5033863;28;20290;-73
2021/06/18 09:24:41;;;;;;;7.65;4.40;;;25.20;99.90;;;;;;5033451;28;20659;-72
2021/06/18 09:27:09;;;;;;;8.38;3.70;;;25.60;99.90;;;;;;5033041;28;20204;-74
2021/06/18 09:29:37;;;;;;;9.52;3.97;;;26.50;99.90;;;;;;5033625;28;20227;-74
2021/06/18 09:32:06;;;;;;;5.38;3.00;;;27.00;99.90;;;;;;5033217;28;20698;-72
2021/06/18 09:34:47;;;;;;;21.10;5.43;;;26.30;99.90;;;;;;5026833;28;20211;-73
2021/06/18 09:37:16;;;;;;;11.95;4.10;;;26.90;99.90;;;;;;5032282;28;20250;-73
2021/06/18 09:40:06;;;;;;;7.85;3.92;;;28.60;99.90;;;;;;5032997;28;20642;-74
2021/06/18 09:42:34;;;;;;;7.90;4.72;;;28.40;99.90;;;;;;5032804;28;20278;-75
2021/06/18 09:45:08;;;;;;;4.95;3.60;;;27.00;99.90;;;;;;5033131;28;20716;-74
2021/06/18 09:47:36;;;;;;;8.30;3.97;;;26.70;99.90;;;;;;5032352;28;20254;-73
2021/06/18 09:50:06;;;;;;;4.97;3.95;;;26.80;99.90;;;;;;5031520;28;20671;-73
2021/06/18 09:52:34;;;;;;;5.40;3.60;;;26.70;99.90;;;;;;5032257;28;20294;-72
2021/06/18 09:55:02;;;;;;;4.93;2.78;;;26.80;99.90;;;;;;5033249;28;20250;-74
2021/06/18 09:57:40;;;;;;;6.18;4.15;;;27.20;99.90;;;;;;5032267;28;20208;-73
2021/06/18 10:00:09;;;;;;;8.05;3.35;;;27.20;99.90;;;;;;5033042;28;20204;-74
2021/06/18 10:02:43;;;;;;;3.88;2.47;;;27.00;99.90;;;;;;5033006;28;20204;-73
2021/06/18 10:05:13;;;;;;;7.72;4.18;;;26.60;99.90;;;;;;5032891;28;20200;-73
2021/06/18 10:07:42;;;;;;;7.35;4.20;;;27.50;99.90;;;;;;5032399;28;20741;-74
2021/06/18 10:10:11;;;;;;;9.02;4.72;;;27.90;99.90;;;;;;5033041;28;20584;-73
2021/06/18 10:12:38;;;;;;;7.72;4.07;;;27.80;99.90;;;;;;5032588;28;20305;-73
2021/06/18 10:15:08;;;;;;;7.90;4.07;;;29.80;99.90;;;;;;5032469;28;20200;-75
2021/06/18 10:17:37;;;;;;;5.55;4.70;;;30.10;99.90;;;;;;5032161;28;20215;-73
2021/06/18 10:20:07;;;;;;;6.68;3.80;;;30.50;99.90;;;;;;5032512;28;20249;-72
2021/06/18 10:22:39;;;;;;;10.48;4.55;;;29.20;99.90;;;;;;5032006;28;20218;-73
2021/06/18 10:25:10;;;;;;;7.60;4.00;;;30.40;99.90;;;;;;5032075;28;20207;-73
2021/06/18 10:27:42;;;;;;;41.33;7.18;;;31.10;99.90;;;;;;5032783;28;20324;-75
2021/06/18 10:30:28;;;;;;;8.57;4.93;;;32.50;99.90;;;;;;5032378;28;20734;-73
2021/06/18 10:32:56;;;;;;;7.00;3.40;;;31.80;99.90;;;;;;5025870;28;20273;-73
2021/06/18 10:35:46;;;;;;;4.38;3.47;;;29.90;99.90;;;;;;5031390;28;20207;-73
2021/06/18 10:38:16;;;;;;;5.53;3.80;;;28.50;99.90;;;;;;5031650;28;20239;-70
2021/06/18 10:40:45;;;;;;;5.10;3.72;;;28.60;99.90;;;;;;5031846;28;20211;-74
2021/06/18 10:43:14;;;;;;;4.63;3.63;;;28.20;99.90;;;;;;5026774;28;20204;-74
2021/06/18 10:46:07;;;;;;;7.07;3.92;;;26.40;99.90;;;;;;5029134;28;20207;-71
2021/06/18 10:49:02;;;;;;;5.00;3.90;;;25.80;99.90;;;;;;5017251;28;20200;-72
2021/06/18 10:51:49;;;;;;;10.65;4.22;;;26.30;99.90;;;;;;5020135;28;20215;-73
2021/06/18 10:54:30;;;;;;;8.07;4.78;;;27.40;99.90;;;;;;5028822;28;20203;-73
2021/06/18 10:57:05;;;;;;;6.85;3.28;;;26.90;99.90;;;;;;5027593;28;20227;-74
2021/06/18 10:59:35;;;;;;;6.70;3.70;;;26.40;99.90;;;;;;5030187;28;20203;-74
2021/06/18 11:02:26;;;;;;;8.95;4.90;;;26.10;99.90;;;;;;5030718;28;20250;-74
2021/06/18 11:04:55;;;;;;;5.63;4.43;;;26.10;99.90;;;;;;5030812;28;20667;-73
2021/06/18 11:07:25;;;;;;;24.00;7.57;;;25.80;99.90;;;;;;5031163;28;20685;-74
2021/06/18 11:09:55;;;;;;;7.68;4.78;;;26.20;99.90;;;;;;5031434;28;20211;-73
2021/06/18 11:13:00;;;;;;;11.63;4.93;;;26.20;99.90;;;;;;5023635;28;20361;-75
2021/06/18 11:15:39;;;;;;;7.95;5.07;;;26.60;99.90;;;;;;5028894;28;20745;-75
2021/06/18 11:18:18;;;;;;;7.13;5.28;;;26.90;99.90;;;;;;5030046;28;20666;-74
2021/06/18 11:20:59;;;;;;;10.38;5.35;;;26.50;99.90;;;;;;5031362;28;20207;-75
2021/06/18 11:23:30;;;;;;;8.27;5.25;;;27.00;99.90;;;;;;5030918;28;20212;-74
2021/06/18 11:26:04;;;;;;;13.38;6.18;;;27.30;99.90;;;;;;5030855;28;20204;-74
2021/06/18 11:28:36;;;;;;;7.68;5.03;;;27.00;99.90;;;;;;5029906;28;20207;-74
2021/06/18 11:31:06;;;;;;;20.30;6.70;;;27.00;99.90;;;;;;5031159;28;20203;-73
2021/06/18 11:33:56;;;;;;;10.05;6.22;;;27.30;99.90;;;;;;5030470;28;20281;-74
2021/06/18 11:36:47;;;;;;;16.88;10.77;;;27.50;99.90;;;;;;5030558;28;20203;-74
2021/06/18 11:39:19;;;;;;;13.98;6.68;;;27.90;99.90;;;;;;5028371;28;20200;-74
2021/06/18 11:41:59;;;;;;;32.08;5.53;;;27.70;99.90;;;;;;5024414;28;20261;-74
2021/06/18 11:44:27;;;;;;;14.50;5.78;;;27.40;99.90;;;;;;5028755;28;20265;-75
2021/06/18 11:46:56;;;;;;;10.43;7.40;;;27.70;99.90;;;;;;5030921;28;20744;-74
2021/06/18 11:49:25;;;;;;;42.72;6.10;;;27.70;99.90;;;;;;5029906;28;20674;-74
2021/06/18 11:51:58;;;;;;;21.10;7.75;;;27.50;99.90;;;;;;5030697;28;20207;-76
2021/06/18 11:54:30;;;;;;;11.00;5.45;;;27.30;99.90;;;;;;5029896;28;20694;-75
2021/06/18 11:57:21;;;;;;;7.93;4.90;;;27.40;99.90;;;;;;5026227;28;20207;-74
2021/06/18 11:59:53;;;;;;;6.45;4.93;;;27.70;99.90;;;;;;5018854;28;20214;-74
2021/06/18 12:02:23;;;;;;;9.02;4.82;;;27.70;99.90;;;;;;5027759;28;20211;-74
2021/06/18 12:05:02;;;;;;;10.90;5.35;;;27.90;99.90;;;;;;5019850;28;20207;-75
2021/06/18 12:07:30;;;;;;;7.50;5.10;;;27.50;99.90;;;;;;5027262;28;20258;-74
2021/06/18 12:09:57;;;;;;;14.68;5.25;;;27.30;99.90;;;;;;5026902;28;20207;-76
2021/06/18 12:12:25;;;;;;;9.80;4.28;;;27.30;99.90;;;;;;5021737;28;20254;-74
2021/06/18 12:14:57;;;;;;;8.18;4.57;;;27.30;99.90;;;;;;5026843;28;20204;-74
2021/06/18 12:17:24;;;;;;;6.43;4.88;;;27.30;99.90;;;;;;5024619;28;20200;-75
2021/06/18 12:19:52;;;;;;;8.98;5.35;;;27.90;99.90;;;;;;5022934;28;20203;-74
2021/06/18 12:22:21;;;;;;;5.90;4.82;;;28.00;99.90;;;;;;5023609;28;20214;-76
2021/06/18 12:24:50;;;;;;;8.18;4.63;;;27.90;99.90;;;;;;5029058;28;20266;-74
2021/06/18 12:27:20;;;;;;;7.40;4.45;;;27.90;99.90;;;;;;5025183;28;20728;-73
2021/06/18 12:29:54;;;;;;;9.50;3.53;;;28.00;99.90;;;;;;5029887;28;20211;-73
2021/06/18 12:32:22;;;;;;;7.10;6.18;;;28.10;99.90;;;;;;5021213;28;20684;-74
2021/06/18 12:34:50;;;;;;;10.48;9.77;;;28.20;99.90;;;;;;5021362;28;20321;-75
2021/06/18 12:37:19;;;;;;;71.95;17.77;;;27.90;99.90;;;;;;5030644;28;20634;-73
2021/06/18 12:39:51;;;;;;;5.65;4.03;;;28.00;99.90;;;;;;5029822;28;20204;-73
2021/06/18 12:42:19;;;;;;;7.25;4.60;;;27.80;99.90;;;;;;5032828;28;20616;-73
2021/06/18 12:44:48;;;;;;;11.63;5.00;;;28.10;99.90;;;;;;5034161;28;20235;-74
2021/06/18 12:47:24;;;;;;;9.05;5.00;;;28.40;99.90;;;;;;5032739;28;20215;-74
2021/06/18 12:49:51;;;;;;;9.68;5.35;;;28.40;99.90;;;;;;5028337;28;20208;-73
2021/06/18 12:52:18;;;;;;;8.48;6.18;;;28.40;99.90;;;;;;5031516;28;20212;-73
2021/06/18 12:54:45;;;;;;;14.52;3.72;;;28.70;99.90;;;;;;5032310;28;20219;-74
2021/06/18 12:57:27;;;;;;;12.18;5.63;;;29.00;99.90;;;;;;5024046;28;20208;-74